sensor_id;sensor_type;location;lat;lon;timestamp;pressure;altitude;pressure_sealevel;temperature;humidity
75460;BME280;64039;53.060;9.342;2023-02-21T00:01:39;101095.78;;;8.36;100.00
75460;BME280;64039;53.060;9.342;2023-02-21T00:04:24;101084.59;;;8.37;100.00
75460;BME280;64039;53.060;9.342;2023-02-21T00:07:08;101087.09;;;8.34;100.00
75460;BME280;64039;53.060;9.342;2023-02-21T00:09:51;101097.66;;;8.40;100.00
75460;BME280;64039;53.060;9.342;2023-02-21T00:12:35;101093.44;;;8.42;100.00
75460;BME280;64039;53.060;9.342;2023-02-21T00:15:19;101100.22;;;8.39;100.00
75460;BME280;64039;53.060;9.342;2023-02-21T00:18:03;101088.88;;;8.35;100.00
75460;BME280;64039;53.060;9.342;2023-02-21T00:20:47;101097.72;;;8.42;100.00
75460;BME280;64039;53.060;9.342;2023-02-21T00:23:35;101082.28;;;8.45;100.00
75460;BME280;64039;53.060;9.342;2023-02-21T00:26:20;101109.28;;;8.50;100.00
75460;BME280;64039;53.060;9.342;2023-02-21T00:29:04;101104.16;;;8.52;100.00
75460;BME280;64039;53.060;9.342;2023-02-21T00:31:48;101099.06;;;8.55;100.00
75460;BME280;64039;53.060;9.342;2023-02-21T00:34:32;101094.66;;;8.52;100.00
75460;BME280;64039;53.060;9.342;2023-02-21T00:37:15;101101.59;;;8.53;100.00
75460;BME280;64039;53.060;9.342;2023-02-21T00:39:59;101105.06;;;8.54;100.00
75460;BME280;64039;53.060;9.342;2023-02-21T00:42:43;101117.16;;;8.53;100.00
75460;BME280;64039;53.060;9.342;2023-02-21T00:45:27;101106.84;;;8.55;100.00
75460;BME280;64039;53.060;9.342;2023-02-21T00:48:12;101108.75;;;8.60;100.00
75460;BME280;64039;53.060;9.342;2023-02-21T00:50:56;101116.22;;;8.51;100.00
75460;BME280;64039;53.060;9.342;2023-02-21T00:53:40;101109.97;;;8.46;100.00
75460;BME280;64039;53.060;9.342;2023-02-21T00:56:23;101104.78;;;8.46;100.00
75460;BME280;64039;53.060;9.342;2023-02-21T00:59:07;101111.59;;;8.42;100.00
75460;BME280;64039;53.060;9.342;2023-02-21T01:01:51;101121.84;;;8.39;100.00
75460;BME280;64039;53.060;9.342;2023-02-21T01:04:35;101113.28;;;8.42;100.00
75460;BME280;64039;53.060;9.342;2023-02-21T01:07:19;101118.53;;;8.43;100.00
75460;BME280;64039;53.060;9.342;2023-02-21T01:10:02;101110.81;;;8.45;100.00
75460;BME280;64039;53.060;9.342;2023-02-21T01:12:47;101119.25;;;8.39;100.00
75460;BME280;64039;53.060;9.342;2023-02-21T01:15:30;101122.00;;;8.44;100.00
75460;BME280;64039;53.060;9.342;2023-02-21T01:18:14;101131.50;;;8.43;100.00
75460;BME280;64039;53.060;9.342;2023-02-21T01:20:58;101123.63;;;8.40;100.00
75460;BME280;64039;53.060;9.342;2023-02-21T01:23:42;101112.22;;;8.35;100.00
75460;BME280;64039;53.060;9.342;2023-02-21T01:26:25;101127.53;;;8.29;100.00
75460;BME280;64039;53.060;9.342;2023-02-21T01:29:10;101125.00;;;8.30;100.00
75460;BME280;64039;53.060;9.342;2023-02-21T01:31:54;101119.50;;;8.21;100.00
75460;BME280;64039;53.060;9.342;2023-02-21T01:34:38;101126.63;;;8.27;100.00
75460;BME280;64039;53.060;9.342;2023-02-21T01:37:22;101126.53;;;8.25;100.00
75460;BME280;64039;53.060;9.342;2023-02-21T01:40:07;101112.47;;;8.18;100.00
75460;BME280;64039;53.060;9.342;2023-02-21T01:42:51;101133.16;;;8.17;100.00
75460;BME280;64039;53.060;9.342;2023-02-21T01:45:54;101124.78;;;8.24;100.00
75460;BME280;64039;53.060;9.342;2023-02-21T01:48:38;101124.88;;;8.27;100.00
75460;BME280;64039;53.060;9.342;2023-02-21T01:51:25;101121.31;;;8.24;100.00
75460;BME280;64039;53.060;9.342;2023-02-21T01:54:10;101118.66;;;8.22;100.00
75460;BME280;64039;53.060;9.342;2023-02-21T01:56:55;101118.84;;;8.27;100.00
75460;BME280;64039;53.060;9.342;2023-02-21T01:59:42;101114.19;;;8.18;100.00
75460;BME280;64039;53.060;9.342;2023-02-21T02:02:49;101109.72;;;8.14;100.00
75460;BME280;64039;53.060;9.342;2023-02-21T02:05:37;101112.38;;;8.15;100.00
75460;BME280;64039;53.060;9.342;2023-02-21T02:08:27;101115.78;;;8.14;100.00
75460;BME280;64039;53.060;9.342;2023-02-21T02:16:48;101123.84;;;8.22;100.00
75460;BME280;64039;53.060;9.342;2023-02-21T02:25:53;101128.53;;;8.08;100.00
75460;BME280;64039;53.060;9.342;2023-02-21T02:36:57;101109.41;;;8.05;100.00
75460;BME280;64039;53.060;9.342;2023-02-21T02:39:37;101121.78;;;8.13;100.00
75460;BME280;64039;53.060;9.342;2023-02-21T02:42:18;101120.97;;;8.14;100.00
75460;BME280;64039;53.060;9.342;2023-02-21T02:47:41;101126.00;;;8.10;100.00
75460;BME280;64039;53.060;9.342;2023-02-21T02:50:09;101133.78;;;8.10;100.00
75460;BME280;64039;53.060;9.342;2023-02-21T02:52:37;101131.56;;;8.21;100.00
75460;BME280;64039;53.060;9.342;2023-02-21T02:55:37;101126.16;;;8.14;100.00
75460;BME280;64039;53.060;9.342;2023-02-21T02:58:04;101123.53;;;8.13;100.00
75460;BME280;64039;53.060;9.342;2023-02-21T03:00:32;101124.50;;;8.16;100.00
75460;BME280;64039;53.060;9.342;2023-02-21T03:03:20;101125.38;;;8.17;100.00
75460;BME280;64039;53.060;9.342;2023-02-21T03:06:16;101122.56;;;8.11;100.00
75460;BME280;64039;53.060;9.342;2023-02-21T03:11:17;101139.81;;;8.10;100.00
75460;BME280;64039;53.060;9.342;2023-02-21T03:16:42;101141.50;;;8.08;100.00
75460;BME280;64039;53.060;9.342;2023-02-21T03:19:18;101134.88;;;8.16;100.00
75460;BME280;64039;53.060;9.342;2023-02-21T03:21:51;101134.53;;;8.07;100.00
75460;BME280;64039;53.060;9.342;2023-02-21T03:24:22;101151.31;;;8.17;100.00
75460;BME280;64039;53.060;9.342;2023-02-21T03:26:51;101152.09;;;8.14;100.00
75460;BME280;64039;53.060;9.342;2023-02-21T03:29:18;101136.75;;;8.21;100.00
75460;BME280;64039;53.060;9.342;2023-02-21T03:31:48;101147.72;;;8.13;100.00
75460;BME280;64039;53.060;9.342;2023-02-21T03:34:16;101146.56;;;8.05;100.00
75460;BME280;64039;53.060;9.342;2023-02-21T03:36:42;101155.38;;;8.10;100.00
75460;BME280;64039;53.060;9.342;2023-02-21T03:39:08;101143.97;;;8.05;100.00
75460;BME280;64039;53.060;9.342;2023-02-21T03:41:33;101135.38;;;8.06;100.00
75460;BME280;64039;53.060;9.342;2023-02-21T03:43:59;101137.75;;;8.00;100.00
75460;BME280;64039;53.060;9.342;2023-02-21T03:46:24;101135.19;;;8.01;100.00
75460;BME280;64039;53.060;9.342;2023-02-21T03:48:50;101134.53;;;8.07;100.00
75460;BME280;64039;53.060;9.342;2023-02-21T03:51:15;101135.97;;;7.99;100.00
75460;BME280;64039;53.060;9.342;2023-02-21T03:53:41;101140.69;;;8.09;100.00
75460;BME280;64039;53.060;9.342;2023-02-21T03:56:06;101132.91;;;8.09;100.00
75460;BME280;64039;53.060;9.342;2023-02-21T03:58:32;101133.56;;;8.03;100.00
75460;BME280;64039;53.060;9.342;2023-02-21T04:00:57;101138.66;;;8.02;100.00
75460;BME280;64039;53.060;9.342;2023-02-21T04:03:23;101125.66;;;8.00;100.00
75460;BME280;64039;53.060;9.342;2023-02-21T04:05:48;101137.91;;;8.05;100.00
75460;BME280;64039;53.060;9.342;2023-02-21T04:08:14;101130.41;;;8.12;100.00
75460;BME280;64039;53.060;9.342;2023-02-21T04:10:40;101139.91;;;8.12;100.00
75460;BME280;64039;53.060;9.342;2023-02-21T04:13:05;101124.22;;;8.09;100.00
75460;BME280;64039;53.060;9.342;2023-02-21T04:15:32;101138.84;;;8.07;100.00
75460;BME280;64039;53.060;9.342;2023-02-21T04:17:57;101135.97;;;7.99;100.00
75460;BME280;64039;53.060;9.342;2023-02-21T04:20:23;101137.09;;;8.06;100.00
75460;BME280;64039;53.060;9.342;2023-02-21T04:22:49;101130.84;;;8.00;100.00
75460;BME280;64039;53.060;9.342;2023-02-21T04:25:14;101123.78;;;7.96;100.00
75460;BME280;64039;53.060;9.342;2023-02-21T04:27:40;101128.16;;;7.97;100.00
75460;BME280;64039;53.060;9.342;2023-02-21T04:30:06;101130.13;;;8.05;100.00
75460;BME280;64039;53.060;9.342;2023-02-21T04:32:31;101128.63;;;8.11;100.00
75460;BME280;64039;53.060;9.342;2023-02-21T04:34:56;101124.88;;;8.03;100.00
75460;BME280;64039;53.060;9.342;2023-02-21T04:37:22;101132.72;;;8.05;100.00
75460;BME280;64039;53.060;9.342;2023-02-21T04:39:48;101130.22;;;8.08;100.00
75460;BME280;64039;53.060;9.342;2023-02-21T04:42:13;101128.69;;;7.89;100.00
75460;BME280;64039;53.060;9.342;2023-02-21T04:44:38;101136.81;;;7.98;100.00
75460;BME280;64039;53.060;9.342;2023-02-21T04:47:04;101130.66;;;7.96;100.00
75460;BME280;64039;53.060;9.342;2023-02-21T04:49:30;101119.44;;;7.95;100.00
75460;BME280;64039;53.060;9.342;2023-02-21T04:51:56;101128.16;;;7.97;100.00
75460;BME280;64039;53.060;9.342;2023-02-21T04:54:21;101125.44;;;7.94;100.00
75460;BME280;64039;53.060;9.342;2023-02-21T04:56:47;101133.47;;;8.02;100.00
75460;BME280;64039;53.060;9.342;2023-02-21T04:59:12;101135.03;;;7.97;100.00
75460;BME280;64039;53.060;9.342;2023-02-21T05:01:38;101130.66;;;7.96;100.00
75460;BME280;64039;53.060;9.342;2023-02-21T05:04:04;101135.84;;;7.96;100.00
75460;BME280;64039;53.060;9.342;2023-02-21T05:06:30;101136.66;;;7.95;100.00
75460;BME280;64039;53.060;9.342;2023-02-21T05:08:57;101128.19;;;7.99;100.00
75460;BME280;64039;53.060;9.342;2023-02-21T05:11:23;101128.16;;;7.97;100.00
75460;BME280;64039;53.060;9.342;2023-02-21T05:13:50;101135.94;;;7.97;100.00
75460;BME280;64039;53.060;9.342;2023-02-21T05:16:16;101129.78;;;7.95;100.00
75460;BME280;64039;53.060;9.342;2023-02-21T05:18:43;101140.94;;;7.93;100.00
75460;BME280;64039;53.060;9.342;2023-02-21T05:21:09;101132.22;;;7.91;100.00
75460;BME280;64039;53.060;9.342;2023-02-21T05:23:35;101133.16;;;7.93;100.00
75460;BME280;64039;53.060;9.342;2023-02-21T05:28:28;101130.41;;;7.88;100.00
75460;BME280;64039;53.060;9.342;2023-02-21T05:30:53;101126.09;;;7.89;100.00
75460;BME280;64039;53.060;9.342;2023-02-21T05:33:19;101132.25;;;7.92;100.00
75460;BME280;64039;53.060;9.342;2023-02-21T05:35:45;101131.56;;;7.96;100.00
75460;BME280;64039;53.060;9.342;2023-02-21T05:38:14;101125.59;;;7.99;100.00
75460;BME280;64039;53.060;9.342;2023-02-21T05:40:39;101122.84;;;7.94;100.00
75460;BME280;64039;53.060;9.342;2023-02-21T05:43:05;101116.53;;;7.87;100.00
75460;BME280;64039;53.060;9.342;2023-02-21T05:45:30;101121.13;;;7.95;100.00
75460;BME280;64039;53.060;9.342;2023-02-21T05:47:56;101127.19;;;7.95;100.00
75460;BME280;64039;53.060;9.342;2023-02-21T05:50:29;101129.72;;;7.94;100.00
75460;BME280;64039;53.060;9.342;2023-02-21T05:52:57;101139.16;;;7.92;100.00
75460;BME280;64039;53.060;9.342;2023-02-21T05:55:22;101139.34;;;7.96;100.00
75460;BME280;64039;53.060;9.342;2023-02-21T05:57:48;101135.63;;;7.90;100.00
75460;BME280;64039;53.060;9.342;2023-02-21T06:00:24;101141.75;;;7.92;100.00
75460;BME280;64039;53.060;9.342;2023-02-21T06:02:51;101147.16;;;7.98;100.00
75460;BME280;64039;53.060;9.342;2023-02-21T06:05:17;101148.88;;;7.97;100.00
75460;BME280;64039;53.060;9.342;2023-02-21T06:07:43;101152.13;;;7.92;100.00
75460;BME280;64039;53.060;9.342;2023-02-21T06:10:09;101154.81;;;7.95;100.00
75460;BME280;64039;53.060;9.342;2023-02-21T06:12:34;101148.59;;;7.90;100.00
75460;BME280;64039;53.060;9.342;2023-02-21T06:15:00;101148.28;;;8.05;100.00
75460;BME280;64039;53.060;9.342;2023-02-21T06:17:26;101159.25;;;7.97;100.00
75460;BME280;64039;53.060;9.342;2023-02-21T06:19:54;101158.41;;;7.98;100.00
75460;BME280;64039;53.060;9.342;2023-02-21T06:22:21;101160.81;;;7.94;100.00
75460;BME280;64039;53.060;9.342;2023-02-21T06:24:46;101154.94;;;7.98;100.00
75460;BME280;64039;53.060;9.342;2023-02-21T06:27:11;101161.06;;;8.00;100.00
75460;BME280;64039;53.060;9.342;2023-02-21T06:29:37;101160.19;;;7.99;100.00
75460;BME280;64039;53.060;9.342;2023-02-21T06:32:02;101159.00;;;7.91;100.00
75460;BME280;64039;53.060;9.342;2023-02-21T06:34:28;101160.91;;;7.95;100.00
75460;BME280;64039;53.060;9.342;2023-02-21T06:36:54;101159.78;;;7.89;100.00
75460;BME280;64039;53.060;9.342;2023-02-21T06:39:21;101159.31;;;7.99;100.00
75460;BME280;64039;53.060;9.342;2023-02-21T06:41:48;101163.25;;;7.89;100.00
75460;BME280;64039;53.060;9.342;2023-02-21T06:44:13;101166.97;;;7.96;100.00
75460;BME280;64039;53.060;9.342;2023-02-21T06:46:39;101166.69;;;7.88;100.00
75460;BME280;64039;53.060;9.342;2023-02-21T06:49:04;101162.53;;;7.93;100.00
75460;BME280;64039;53.060;9.342;2023-02-21T06:51:34;101169.78;;;8.02;100.00
75460;BME280;64039;53.060;9.342;2023-02-21T06:54:00;101175.72;;;7.99;100.00
75460;BME280;64039;53.060;9.342;2023-02-21T06:56:26;101181.69;;;7.97;100.00
75460;BME280;64039;53.060;9.342;2023-02-21T06:58:52;101168.72;;;7.97;100.00
75460;BME280;64039;53.060;9.342;2023-02-21T07:01:18;101166.97;;;7.96;100.00
75460;BME280;64039;53.060;9.342;2023-02-21T07:03:43;101169.72;;;8.00;100.00
75460;BME280;64039;53.060;9.342;2023-02-21T07:06:10;101178.09;;;7.93;100.00
75460;BME280;64039;53.060;9.342;2023-02-21T07:08:36;101169.03;;;8.05;100.00
75460;BME280;64039;53.060;9.342;2023-02-21T07:11:01;101167.78;;;7.95;100.00
75460;BME280;64039;53.060;9.342;2023-02-21T07:13:27;101172.22;;;7.97;100.00
75460;BME280;64039;53.060;9.342;2023-02-21T07:15:52;101176.69;;;8.01;100.00
75460;BME280;64039;53.060;9.342;2023-02-21T07:18:20;101189.59;;;8.00;100.00
75460;BME280;64039;53.060;9.342;2023-02-21T07:20:48;101190.47;;;8.00;100.00
75460;BME280;64039;53.060;9.342;2023-02-21T07:23:14;101197.06;;;7.92;100.00
75460;BME280;64039;53.060;9.342;2023-02-21T07:25:40;101194.66;;;7.97;100.00
75460;BME280;64039;53.060;9.342;2023-02-21T07:28:05;101199.13;;;8.01;100.00
75460;BME280;64039;53.060;9.342;2023-02-21T07:30:31;101197.38;;;8.00;100.00
75460;BME280;64039;53.060;9.342;2023-02-21T07:32:57;101207.00;;;8.04;100.00
75460;BME280;64039;53.060;9.342;2023-02-21T07:35:23;101214.28;;;8.13;100.00
75460;BME280;64039;53.060;9.342;2023-02-21T07:37:48;101217.34;;;8.02;100.00
75460;BME280;64039;53.060;9.342;2023-02-21T07:40:14;101225.97;;;8.03;100.00
75460;BME280;64039;53.060;9.342;2023-02-21T07:42:41;101222.66;;;8.06;100.00
75460;BME280;64039;53.060;9.342;2023-02-21T07:45:13;101222.91;;;8.13;100.00
75460;BME280;64039;53.060;9.342;2023-02-21T07:47:39;101232.13;;;8.05;100.00
75460;BME280;64039;53.060;9.342;2023-02-21T07:50:05;101233.53;;;7.97;100.00
75460;BME280;64039;53.060;9.342;2023-02-21T07:52:31;101232.28;;;8.10;100.00
75460;BME280;64039;53.060;9.342;2023-02-21T07:54:57;101241.78;;;8.09;100.00
75460;BME280;64039;53.060;9.342;2023-02-21T07:57:22;101243.31;;;8.04;100.00
75460;BME280;64039;53.060;9.342;2023-02-21T07:59:48;101243.13;;;7.99;100.00
75460;BME280;64039;53.060;9.342;2023-02-21T08:02:13;101243.25;;;8.02;100.00
75460;BME280;64039;53.060;9.342;2023-02-21T08:04:39;101244.31;;;8.08;100.00
75460;BME280;64039;53.060;9.342;2023-02-21T08:07:06;101249.56;;;8.09;100.00
75460;BME280;64039;53.060;9.342;2023-02-21T08:09:32;101247.84;;;8.10;100.00
75460;BME280;64039;53.060;9.342;2023-02-21T08:11:57;101251.09;;;8.04;100.00
75460;BME280;64039;53.060;9.342;2023-02-21T08:14:23;101254.69;;;8.08;100.00
75460;BME280;64039;53.060;9.342;2023-02-21T08:16:49;101249.66;;;8.12;100.00
75460;BME280;64039;53.060;9.342;2023-02-21T08:19:14;101247.91;;;8.11;100.00
75460;BME280;64039;53.060;9.342;2023-02-21T08:21:44;101249.31;;;8.03;100.00
75460;BME280;64039;53.060;9.342;2023-02-21T08:24:10;101245.97;;;8.06;100.00
75460;BME280;64039;53.060;9.342;2023-02-21T08:26:36;101259.16;;;8.12;100.00
75460;BME280;64039;53.060;9.342;2023-02-21T08:29:01;101265.22;;;8.12;100.00
75460;BME280;64039;53.060;9.342;2023-02-21T08:31:28;101268.03;;;8.18;100.00
75460;BME280;64039;53.060;9.342;2023-02-21T08:33:53;101260.25;;;8.18;100.00
75460;BME280;64039;53.060;9.342;2023-02-21T08:36:18;101272.13;;;8.12;100.00
75460;BME280;64039;53.060;9.342;2023-02-21T08:38:44;101269.94;;;8.23;100.00
75460;BME280;64039;53.060;9.342;2023-02-21T08:41:09;101280.13;;;8.18;100.00
75460;BME280;64039;53.060;9.342;2023-02-21T08:43:35;101271.72;;;8.24;100.00
75460;BME280;64039;53.060;9.342;2023-02-21T08:46:01;101278.81;;;8.07;100.00
75460;BME280;64039;53.060;9.342;2023-02-21T08:48:27;101274.00;;;8.16;100.00
75460;BME280;64039;53.060;9.342;2023-02-21T08:50:52;101279.97;;;8.13;100.00
75460;BME280;64039;53.060;9.342;2023-02-21T08:53:18;101284.31;;;8.14;100.00
75460;BME280;64039;53.060;9.342;2023-02-21T08:55:44;101283.28;;;8.09;100.00
75460;BME280;64039;53.060;9.342;2023-02-21T08:58:10;101282.50;;;8.12;100.00
75460;BME280;64039;53.060;9.342;2023-02-21T09:00:37;101283.56;;;8.17;100.00
75460;BME280;64039;53.060;9.342;2023-02-21T09:03:03;101272.50;;;8.21;100.00
75460;BME280;64039;53.060;9.342;2023-02-21T09:05:30;101293.06;;;8.16;100.00
75460;BME280;64039;53.060;9.342;2023-02-21T09:07:58;101282.56;;;8.13;100.00
75460;BME280;64039;53.060;9.342;2023-02-21T09:10:27;101285.09;;;8.12;100.00
75460;BME280;64039;53.060;9.342;2023-02-21T09:12:53;101278.19;;;8.12;100.00
75460;BME280;64039;53.060;9.342;2023-02-21T09:15:18;101289.81;;;8.22;100.00
75460;BME280;64039;53.060;9.342;2023-02-21T09:17:44;101286.50;;;8.26;100.00
75460;BME280;64039;53.060;9.342;2023-02-21T09:20:14;101282.22;;;8.27;100.00
75460;BME280;64039;53.060;9.342;2023-02-21T09:22:42;101289.81;;;8.22;100.00
75460;BME280;64039;53.060;9.342;2023-02-21T09:25:10;101290.09;;;8.30;100.00
75460;BME280;64039;53.060;9.342;2023-02-21T09:27:38;101282.28;;;8.28;100.00
75460;BME280;64039;53.060;9.342;2023-02-21T09:30:24;101286.03;;;8.37;100.00
75460;BME280;64039;53.060;9.342;2023-02-21T09:32:51;101277.94;;;8.29;100.00
75460;BME280;64039;53.060;9.342;2023-02-21T09:35:17;101286.00;;;8.35;100.00
75460;BME280;64039;53.060;9.342;2023-02-21T09:37:43;101281.84;;;8.40;100.00
75460;BME280;64039;53.060;9.342;2023-02-21T09:40:39;101285.09;;;8.34;100.00
75460;BME280;64039;53.060;9.342;2023-02-21T09:43:11;101287.25;;;8.46;100.00
75460;BME280;64039;53.060;9.342;2023-02-21T09:45:39;101293.22;;;8.44;100.00
75460;BME280;64039;53.060;9.342;2023-02-21T09:48:16;101292.66;;;8.51;100.00
75460;BME280;64039;53.060;9.342;2023-02-21T09:50:46;101285.69;;;8.50;100.00
75460;BME280;64039;53.060;9.342;2023-02-21T09:53:26;101299.66;;;8.54;100.00
75460;BME280;64039;53.060;9.342;2023-02-21T09:55:57;101293.38;;;8.47;100.00
75460;BME280;64039;53.060;9.342;2023-02-21T09:58:24;101301.22;;;8.48;100.00
75460;BME280;64039;53.060;9.342;2023-02-21T10:00:50;101299.06;;;8.38;100.00
75460;BME280;64039;53.060;9.342;2023-02-21T10:06:05;101301.25;;;8.50;100.00
75460;BME280;64039;53.060;9.342;2023-02-21T10:08:53;101308.50;;;8.59;100.00
75460;BME280;64039;53.060;9.342;2023-02-21T10:17:21;101307.25;;;8.49;100.00
75460;BME280;64039;53.060;9.342;2023-02-21T10:19:53;101308.50;;;8.59;100.00
75460;BME280;64039;53.060;9.342;2023-02-21T10:22:22;101299.41;;;8.70;100.00
75460;BME280;64039;53.060;9.342;2023-02-21T10:24:50;101301.16;;;8.71;100.00
75460;BME280;64039;53.060;9.342;2023-02-21T10:27:21;101309.41;;;8.84;100.00
75460;BME280;64039;53.060;9.342;2023-02-21T10:29:55;101310.25;;;8.83;100.00
75460;BME280;64039;53.060;9.342;2023-02-21T10:32:24;101305.09;;;8.84;100.00
75460;BME280;64039;53.060;9.342;2023-02-21T10:34:50;101304.38;;;8.88;100.00
75460;BME280;64039;53.060;9.342;2023-02-21T10:39:50;101305.53;;;8.72;100.00
75460;BME280;64039;53.060;9.342;2023-02-21T10:42:35;101296.44;;;8.84;100.00
75460;BME280;64039;53.060;9.342;2023-02-21T10:45:03;101302.34;;;9.04;100.00
75460;BME280;64039;53.060;9.342;2023-02-21T10:48:11;101298.91;;;9.05;100.00
75460;BME280;64039;53.060;9.342;2023-02-21T10:51:05;101306.09;;;9.12;100.00
75460;BME280;64039;53.060;9.342;2023-02-21T10:53:39;101307.84;;;9.13;100.00
75460;BME280;64039;53.060;9.342;2023-02-21T11:01:20;101325.38;;;8.94;100.00
75460;BME280;64039;53.060;9.342;2023-02-21T11:03:49;101315.97;;;8.98;100.00
75460;BME280;64039;53.060;9.342;2023-02-21T11:06:38;101320.88;;;8.90;100.00
75460;BME280;64039;53.060;9.342;2023-02-21T11:09:41;101316.03;;;9.00;100.00
75460;BME280;64039;53.060;9.342;2023-02-21T11:12:27;101319.69;;;9.05;100.00
75460;BME280;64039;53.060;9.342;2023-02-21T11:17:24;101318.94;;;9.09;100.00
75460;BME280;64039;53.060;9.342;2023-02-21T11:25:03;101312.22;;;9.14;100.00
75460;BME280;64039;53.060;9.342;2023-02-21T11:27:32;101322.13;;;9.00;100.00
75460;BME280;64039;53.060;9.342;2023-02-21T11:30:02;101320.00;;;9.14;100.00
75460;BME280;64039;53.060;9.342;2023-02-21T11:32:32;101309.78;;;9.19;100.00
75460;BME280;64039;53.060;9.342;2023-02-21T11:37:52;101308.09;;;9.21;100.00
75460;BME280;64039;53.060;9.342;2023-02-21T11:40:48;101310.16;;;9.30;100.00
75460;BME280;64039;53.060;9.342;2023-02-21T11:43:18;101309.84;;;9.20;100.00
75460;BME280;64039;53.060;9.342;2023-02-21T11:46:16;101310.31;;;9.34;100.00
75460;BME280;64039;53.060;9.342;2023-02-21T11:48:49;101302.03;;;9.46;100.00
75460;BME280;64039;53.060;9.342;2023-02-21T11:51:33;101305.81;;;9.56;100.00
75460;BME280;64039;53.060;9.342;2023-02-21T11:54:03;101305.00;;;9.57;100.00
75460;BME280;64039;53.060;9.342;2023-02-21T11:56:50;101308.53;;;9.59;100.00
75460;BME280;64039;53.060;9.342;2023-02-21T12:05:13;101303.75;;;9.99;100.00
75460;BME280;64039;53.060;9.342;2023-02-21T12:22:01;101300.03;;;10.19;100.00
75460;BME280;64039;53.060;9.342;2023-02-21T12:27:24;101303.09;;;10.06;100.00
75460;BME280;64039;53.060;9.342;2023-02-21T12:32:55;101303.19;;;10.09;100.00
75460;BME280;64039;53.060;9.342;2023-02-21T12:41:00;101307.38;;;10.04;100.00
75460;BME280;64039;53.060;9.342;2023-02-21T12:43:37;101306.75;;;10.13;100.00
75460;BME280;64039;53.060;9.342;2023-02-21T12:48:46;101307.88;;;10.21;100.00
75460;BME280;64039;53.060;9.342;2023-02-21T12:51:15;101295.78;;;10.23;100.00
75460;BME280;64039;53.060;9.342;2023-02-21T12:53:59;101293.28;;;9.97;100.00
75460;BME280;64039;53.060;9.342;2023-02-21T12:56:47;101296.97;;;10.04;100.00
75460;BME280;64039;53.060;9.342;2023-02-21T12:59:28;101290.00;;;10.03;100.00
75460;BME280;64039;53.060;9.342;2023-02-21T13:02:02;101289.34;;;10.10;100.00
75460;BME280;64039;53.060;9.342;2023-02-21T13:05:06;101290.28;;;10.12;100.00
75460;BME280;64039;53.060;9.342;2023-02-21T13:07:35;101290.94;;;10.05;100.00
75460;BME280;64039;53.060;9.342;2023-02-21T13:15:34;101287.78;;;10.15;100.00
75460;BME280;64039;53.060;9.342;2023-02-21T13:20:36;101276.09;;;10.31;100.00
75460;BME280;64039;53.060;9.342;2023-02-21T13:23:22;101281.03;;;10.51;100.00
75460;BME280;64039;53.060;9.342;2023-02-21T13:26:12;101276.09;;;10.31;100.00
75460;BME280;64039;53.060;9.342;2023-02-21T13:28:41;101269.25;;;10.35;100.00
75460;BME280;64039;53.060;9.342;2023-02-21T13:31:18;101271.16;;;10.39;100.00
75460;BME280;64039;53.060;9.342;2023-02-21T13:33:54;101270.59;;;10.20;100.00
75460;BME280;64039;53.060;9.342;2023-02-21T13:36:42;101276.59;;;10.18;100.00
75460;BME280;64039;53.060;9.342;2023-02-21T13:41:36;101269.91;;;10.28;100.00
75460;BME280;64039;53.060;9.342;2023-02-21T13:49:47;101266.03;;;10.13;100.00
75460;BME280;64039;53.060;9.342;2023-02-21T13:57:42;101259.84;;;10.10;100.00
75460;BME280;64039;53.060;9.342;2023-02-21T14:08:14;101269.88;;;9.97;100.00
75460;BME280;64039;53.060;9.342;2023-02-21T14:10:49;101276.25;;;10.07;100.00
75460;BME280;64039;53.060;9.342;2023-02-21T14:13:35;101272.44;;;9.96;100.00
75460;BME280;64039;53.060;9.342;2023-02-21T14:18:54;101268.53;;;10.10;100.00
75460;BME280;64039;53.060;9.342;2023-02-21T14:23:54;101269.75;;;10.21;100.00
75460;BME280;64039;53.060;9.342;2023-02-21T14:29:34;101262.47;;;10.10;100.00
75460;BME280;64039;53.060;9.342;2023-02-21T14:34:47;101264.09;;;10.06;100.00
75460;BME280;64039;53.060;9.342;2023-02-21T14:46:17;101264.84;;;10.03;100.00
75460;BME280;64039;53.060;9.342;2023-02-21T14:54:45;101253.16;;;10.18;100.00
75460;BME280;64039;53.060;9.342;2023-02-21T14:57:29;101263.72;;;10.22;100.00
75460;BME280;64039;53.060;9.342;2023-02-21T15:02:58;101267.22;;;10.25;100.00
75460;BME280;64039;53.060;9.342;2023-02-21T15:05:33;101259.38;;;10.23;100.00
75460;BME280;64039;53.060;9.342;2023-02-21T15:08:06;101259.47;;;10.26;100.00
75460;BME280;64039;53.060;9.342;2023-02-21T15:10:43;101258.53;;;10.24;100.00
75460;BME280;64039;53.060;9.342;2023-02-21T15:18:28;101255.31;;;10.33;100.00
75460;BME280;64039;53.060;9.342;2023-02-21T15:21:15;101252.97;;;10.41;100.00
75460;BME280;64039;53.060;9.342;2023-02-21T15:23:48;101253.78;;;10.38;100.00
75460;BME280;64039;53.060;9.342;2023-02-21T15:26:27;101259.69;;;10.34;100.00
75460;BME280;64039;53.060;9.342;2023-02-21T15:31:39;101255.31;;;10.33;100.00
75460;BME280;64039;53.060;9.342;2023-02-21T15:34:05;101261.41;;;10.33;100.00
75460;BME280;64039;53.060;9.342;2023-02-21T15:36:31;101257.97;;;10.34;100.00
75460;BME280;64039;53.060;9.342;2023-02-21T15:39:05;101263.78;;;10.26;100.00
75460;BME280;64039;53.060;9.342;2023-02-21T15:41:43;101264.41;;;10.17;100.00
75460;BME280;64039;53.060;9.342;2023-02-21T15:44:31;101263.72;;;10.22;100.00
75460;BME280;64039;53.060;9.342;2023-02-21T15:47:02;101268.50;;;10.09;100.00
75460;BME280;64039;53.060;9.342;2023-02-21T15:49:36;101269.31;;;10.07;100.00
75460;BME280;64039;53.060;9.342;2023-02-21T15:52:03;101273.72;;;10.10;100.00
75460;BME280;64039;53.060;9.342;2023-02-21T15:54:32;101265.72;;;10.02;100.00